sensor_id;sensor_type;location;lat;lon;timestamp;P1;durP1;ratioP1;P2;durP2;ratioP2
55009;SDS011;40903;51.638;7.528;2023-05-29T06:07:36;10.13;;;3.20;;
55009;SDS011;40903;51.638;7.528;2023-05-29T06:10:03;11.30;;;3.60;;
55009;SDS011;40903;51.638;7.528;2023-05-29T06:12:29;10.43;;;3.30;;
55009;SDS011;40903;51.638;7.528;2023-05-29T06:14:55;11.30;;;3.07;;
55009;SDS011;40903;51.638;7.528;2023-05-29T06:17:20;9.73;;;2.80;;
55009;SDS011;40903;51.638;7.528;2023-05-29T06:19:46;8.83;;;3.30;;
55009;SDS011;40903;51.638;7.528;2023-05-29T06:22:13;10.50;;;3.10;;
55009;SDS011;40903;51.638;7.528;2023-05-29T06:24:39;13.53;;;3.50;;
55009;SDS011;40903;51.638;7.528;2023-05-29T06:27:04;15.77;;;2.83;;
55009;SDS011;40903;51.638;7.528;2023-05-29T06:29:31;13.40;;;3.17;;
55009;SDS011;40903;51.638;7.528;2023-05-29T06:31:56;11.60;;;2.87;;
55009;SDS011;40903;51.638;7.528;2023-05-29T06:34:22;12.87;;;3.17;;
55009;SDS011;40903;51.638;7.528;2023-05-29T06:36:47;11.63;;;3.03;;
55009;SDS011;40903;51.638;7.528;2023-05-29T06:39:13;11.27;;;3.10;;
55009;SDS011;40903;51.638;7.528;2023-05-29T06:41:40;6.17;;;2.77;;
55009;SDS011;40903;51.638;7.528;2023-05-29T06:44:05;11.40;;;3.27;;
55009;SDS011;40903;51.638;7.528;2023-05-29T06:46:30;11.53;;;3.67;;
55009;SDS011;40903;51.638;7.528;2023-05-29T06:48:56;11.20;;;3.40;;
55009;SDS011;40903;51.638;7.528;2023-05-29T06:51:21;11.73;;;3.70;;
55009;SDS011;40903;51.638;7.528;2023-05-29T06:53:46;7.90;;;2.70;;
55009;SDS011;40903;51.638;7.528;2023-05-29T06:56:12;9.10;;;2.83;;
55009;SDS011;40903;51.638;7.528;2023-05-29T06:58:37;11.13;;;3.70;;
55009;SDS011;40903;51.638;7.528;2023-05-29T07:01:03;11.30;;;3.23;;
55009;SDS011;40903;51.638;7.528;2023-05-29T07:03:28;11.47;;;3.20;;
55009;SDS011;40903;51.638;7.528;2023-05-29T07:05:54;13.43;;;3.53;;
55009;SDS011;40903;51.638;7.528;2023-05-29T07:08:20;7.97;;;2.70;;
55009;SDS011;40903;51.638;7.528;2023-05-29T07:10:45;9.27;;;3.13;;
55009;SDS011;40903;51.638;7.528;2023-05-29T07:13:14;9.77;;;3.13;;
55009;SDS011;40903;51.638;7.528;2023-05-29T07:15:41;11.77;;;3.33;;
55009;SDS011;40903;51.638;7.528;2023-05-29T07:18:06;11.80;;;3.23;;
55009;SDS011;40903;51.638;7.528;2023-05-29T07:20:32;8.40;;;3.13;;
55009;SDS011;40903;51.638;7.528;2023-05-29T07:22:57;14.50;;;2.97;;
55009;SDS011;40903;51.638;7.528;2023-05-29T07:25:23;13.13;;;3.50;;
55009;SDS011;40903;51.638;7.528;2023-05-29T07:27:48;9.33;;;3.07;;
55009;SDS011;40903;51.638;7.528;2023-05-29T07:30:14;11.00;;;3.37;;
55009;SDS011;40903;51.638;7.528;2023-05-29T07:32:40;9.63;;;2.87;;
55009;SDS011;40903;51.638;7.528;2023-05-29T07:35:06;12.77;;;3.30;;
55009;SDS011;40903;51.638;7.528;2023-05-29T07:37:31;10.30;;;3.13;;
55009;SDS011;40903;51.638;7.528;2023-05-29T07:39:57;9.40;;;3.23;;
55009;SDS011;40903;51.638;7.528;2023-05-29T07:42:22;11.60;;;3.37;;
55009;SDS011;40903;51.638;7.528;2023-05-29T07:44:48;11.27;;;3.10;;
55009;SDS011;40903;51.638;7.528;2023-05-29T07:47:13;10.17;;;2.80;;
55009;SDS011;40903;51.638;7.528;2023-05-29T07:49:39;10.60;;;3.37;;
55009;SDS011;40903;51.638;7.528;2023-05-29T07:52:05;10.40;;;3.37;;
55009;SDS011;40903;51.638;7.528;2023-05-29T07:54:31;11.80;;;3.07;;
55009;SDS011;40903;51.638;7.528;2023-05-29T07:56:58;7.47;;;3.07;;
55009;SDS011;40903;51.638;7.528;2023-05-29T07:59:24;12.47;;;3.27;;
55009;SDS011;40903;51.638;7.528;2023-05-29T08:01:50;9.77;;;2.83;;
55009;SDS011;40903;51.638;7.528;2023-05-29T08:04:15;10.90;;;3.20;;
55009;SDS011;40903;51.638;7.528;2023-05-29T08:06:41;10.97;;;3.10;;
55009;SDS011;40903;51.638;7.528;2023-05-29T08:09:09;9.57;;;3.33;;
55009;SDS011;40903;51.638;7.528;2023-05-29T08:11:36;9.80;;;3.13;;
55009;SDS011;40903;51.638;7.528;2023-05-29T08:14:01;10.03;;;3.43;;
55009;SDS011;40903;51.638;7.528;2023-05-29T08:16:27;8.00;;;3.17;;
55009;SDS011;40903;51.638;7.528;2023-05-29T08:18:52;6.97;;;2.80;;
55009;SDS011;40903;51.638;7.528;2023-05-29T08:21:18;14.03;;;3.57;;
55009;SDS011;40903;51.638;7.528;2023-05-29T08:23:44;7.53;;;3.00;;
55009;SDS011;40903;51.638;7.528;2023-05-29T08:26:09;6.10;;;2.73;;
55009;SDS011;40903;51.638;7.528;2023-05-29T08:28:35;11.63;;;3.87;;
55009;SDS011;40903;51.638;7.528;2023-05-29T08:31:00;10.43;;;2.83;;
55009;SDS011;40903;51.638;7.528;2023-05-29T08:33:26;7.70;;;2.60;;
55009;SDS011;40903;51.638;7.528;2023-05-29T08:35:51;8.97;;;3.20;;
55009;SDS011;40903;51.638;7.528;2023-05-29T08:38:16;12.23;;;3.20;;
55009;SDS011;40903;51.638;7.528;2023-05-29T08:40:42;9.63;;;3.00;;
55009;SDS011;40903;51.638;7.528;2023-05-29T08:43:26;10.03;;;2.63;;
55009;SDS011;40903;51.638;7.528;2023-05-29T08:46:01;7.27;;;3.00;;
55009;SDS011;40903;51.638;7.528;2023-05-29T08:48:28;7.90;;;3.10;;
55009;SDS011;40903;51.638;7.528;2023-05-29T08:50:55;8.60;;;2.80;;
55009;SDS011;40903;51.638;7.528;2023-05-29T08:53:22;6.13;;;2.70;;
55009;SDS011;40903;51.638;7.528;2023-05-29T08:55:48;10.83;;;3.40;;
55009;SDS011;40903;51.638;7.528;2023-05-29T08:58:20;9.73;;;3.00;;
55009;SDS011;40903;51.638;7.528;2023-05-29T09:00:47;13.13;;;3.87;;
55009;SDS011;40903;51.638;7.528;2023-05-29T09:03:13;9.83;;;2.87;;
55009;SDS011;40903;51.638;7.528;2023-05-29T09:05:39;10.90;;;3.33;;
55009;SDS011;40903;51.638;7.528;2023-05-29T09:08:09;6.00;;;2.60;;
55009;SDS011;40903;51.638;7.528;2023-05-29T09:10:37;11.00;;;3.30;;
55009;SDS011;40903;51.638;7.528;2023-05-29T09:13:06;9.20;;;2.70;;
55009;SDS011;40903;51.638;7.528;2023-05-29T09:15:32;9.53;;;3.40;;
55009;SDS011;40903;51.638;7.528;2023-05-29T09:17:58;11.73;;;3.00;;
55009;SDS011;40903;51.638;7.528;2023-05-29T09:20:25;8.50;;;3.00;;
55009;SDS011;40903;51.638;7.528;2023-05-29T09:22:55;7.93;;;2.93;;
55009;SDS011;40903;51.638;7.528;2023-05-29T09:25:23;7.97;;;2.90;;
55009;SDS011;40903;51.638;7.528;2023-05-29T09:27:54;9.87;;;3.37;;
55009;SDS011;40903;51.638;7.528;2023-05-29T09:33:02;11.13;;;3.47;;
55009;SDS011;40903;51.638;7.528;2023-05-29T09:35:32;11.70;;;3.47;;
55009;SDS011;40903;51.638;7.528;2023-05-29T09:38:00;9.23;;;2.93;;
55009;SDS011;40903;51.638;7.528;2023-05-29T09:40:29;9.13;;;2.90;;
55009;SDS011;40903;51.638;7.528;2023-05-29T09:42:54;9.70;;;2.93;;
55009;SDS011;40903;51.638;7.528;2023-05-29T09:45:20;11.63;;;2.60;;
55009;SDS011;40903;51.638;7.528;2023-05-29T09:47:47;7.27;;;2.93;;
55009;SDS011;40903;51.638;7.528;2023-05-29T09:50:19;7.57;;;2.43;;
55009;SDS011;40903;51.638;7.528;2023-05-29T09:52:47;9.63;;;3.13;;
55009;SDS011;40903;51.638;7.528;2023-05-29T09:55:17;10.10;;;3.40;;
55009;SDS011;40903;51.638;7.528;2023-05-29T09:57:46;11.17;;;2.80;;
55009;SDS011;40903;51.638;7.528;2023-05-29T10:00:13;9.73;;;2.83;;
55009;SDS011;40903;51.638;7.528;2023-05-29T10:02:42;10.90;;;2.67;;
55009;SDS011;40903;51.638;7.528;2023-05-29T10:05:08;8.07;;;2.77;;
55009;SDS011;40903;51.638;7.528;2023-05-29T10:07:35;20.13;;;3.37;;
55009;SDS011;40903;51.638;7.528;2023-05-29T10:10:05;7.20;;;3.07;;
55009;SDS011;40903;51.638;7.528;2023-05-29T10:12:32;10.50;;;3.03;;
55009;SDS011;40903;51.638;7.528;2023-05-29T10:15:02;6.83;;;2.70;;
55009;SDS011;40903;51.638;7.528;2023-05-29T10:17:31;8.67;;;2.70;;
55009;SDS011;40903;51.638;7.528;2023-05-29T10:19:58;7.63;;;2.77;;
55009;SDS011;40903;51.638;7.528;2023-05-29T10:22:27;7.67;;;2.70;;
55009;SDS011;40903;51.638;7.528;2023-05-29T10:24:56;7.80;;;2.50;;
55009;SDS011;40903;51.638;7.528;2023-05-29T10:27:22;9.20;;;2.97;;
55009;SDS011;40903;51.638;7.528;2023-05-29T10:29:59;8.03;;;3.00;;
55009;SDS011;40903;51.638;7.528;2023-05-29T10:38:31;9.90;;;3.00;;
55009;SDS011;40903;51.638;7.528;2023-05-29T10:41:20;7.67;;;3.07;;
55009;SDS011;40903;51.638;7.528;2023-05-29T10:44:38;7.80;;;3.30;;
55009;SDS011;40903;51.638;7.528;2023-05-29T10:49:25;8.93;;;2.67;;
55009;SDS011;40903;51.638;7.528;2023-05-29T10:51:51;7.23;;;2.93;;
55009;SDS011;40903;51.638;7.528;2023-05-29T10:54:26;8.53;;;2.77;;
55009;SDS011;40903;51.638;7.528;2023-05-29T10:56:55;10.53;;;2.90;;
55009;SDS011;40903;51.638;7.528;2023-05-29T10:59:22;8.43;;;2.70;;
55009;SDS011;40903;51.638;7.528;2023-05-29T11:01:53;8.00;;;2.97;;
55009;SDS011;40903;51.638;7.528;2023-05-29T11:06:45;10.93;;;3.70;;
55009;SDS011;40903;51.638;7.528;2023-05-29T11:14:59;9.53;;;3.17;;
55009;SDS011;40903;51.638;7.528;2023-05-29T11:20:02;10.03;;;3.30;;
55009;SDS011;40903;51.638;7.528;2023-05-29T11:22:53;6.97;;;3.10;;
55009;SDS011;40903;51.638;7.528;2023-05-29T11:25:24;8.40;;;2.70;;
55009;SDS011;40903;51.638;7.528;2023-05-29T11:27:49;7.97;;;3.03;;
55009;SDS011;40903;51.638;7.528;2023-05-29T11:30:17;8.87;;;2.93;;
55009;SDS011;40903;51.638;7.528;2023-05-29T11:32:43;9.60;;;3.03;;
55009;SDS011;40903;51.638;7.528;2023-05-29T11:35:11;7.83;;;2.70;;
55009;SDS011;40903;51.638;7.528;2023-05-29T11:37:38;11.00;;;3.10;;
55009;SDS011;40903;51.638;7.528;2023-05-29T11:40:07;6.70;;;3.00;;
55009;SDS011;40903;51.638;7.528;2023-05-29T11:42:34;9.30;;;2.90;;
55009;SDS011;40903;51.638;7.528;2023-05-29T11:45:09;10.97;;;3.17;;
55009;SDS011;40903;51.638;7.528;2023-05-29T11:50:24;6.00;;;2.80;;
55009;SDS011;40903;51.638;7.528;2023-05-29T11:52:50;6.83;;;2.67;;
55009;SDS011;40903;51.638;7.528;2023-05-29T11:55:17;5.27;;;2.80;;
55009;SDS011;40903;51.638;7.528;2023-05-29T11:57:46;7.50;;;2.93;;
55009;SDS011;40903;51.638;7.528;2023-05-29T12:00:13;9.53;;;2.73;;
55009;SDS011;40903;51.638;7.528;2023-05-29T12:02:43;5.73;;;2.13;;
55009;SDS011;40903;51.638;7.528;2023-05-29T12:05:11;6.40;;;2.83;;
55009;SDS011;40903;51.638;7.528;2023-05-29T12:07:46;7.53;;;2.67;;
55009;SDS011;40903;51.638;7.528;2023-05-29T12:10:27;9.20;;;2.93;;
55009;SDS011;40903;51.638;7.528;2023-05-29T12:12:53;4.53;;;2.37;;
55009;SDS011;40903;51.638;7.528;2023-05-29T12:15:21;6.63;;;2.57;;
55009;SDS011;40903;51.638;7.528;2023-05-29T12:17:47;6.37;;;2.57;;
55009;SDS011;40903;51.638;7.528;2023-05-29T12:20:14;7.10;;;2.83;;
55009;SDS011;40903;51.638;7.528;2023-05-29T12:22:40;7.50;;;2.90;;
55009;SDS011;40903;51.638;7.528;2023-05-29T12:25:14;5.33;;;2.33;;
55009;SDS011;40903;51.638;7.528;2023-05-29T12:27:40;8.30;;;2.73;;
55009;SDS011;40903;51.638;7.528;2023-05-29T12:30:08;6.10;;;2.63;;
55009;SDS011;40903;51.638;7.528;2023-05-29T12:32:46;4.90;;;2.53;;
55009;SDS011;40903;51.638;7.528;2023-05-29T12:35:13;6.50;;;3.43;;
55009;SDS011;40903;51.638;7.528;2023-05-29T12:37:43;15.13;;;9.97;;
55009;SDS011;40903;51.638;7.528;2023-05-29T12:40:29;10.27;;;4.30;;
55009;SDS011;40903;51.638;7.528;2023-05-29T12:42:59;17.40;;;12.00;;
55009;SDS011;40903;51.638;7.528;2023-05-29T12:45:27;12.17;;;5.73;;
55009;SDS011;40903;51.638;7.528;2023-05-29T12:47:57;9.57;;;5.30;;
55009;SDS011;40903;51.638;7.528;2023-05-29T12:50:27;13.63;;;8.30;;
55009;SDS011;40903;51.638;7.528;2023-05-29T12:55:28;41.13;;;36.63;;
55009;SDS011;40903;51.638;7.528;2023-05-29T12:57:55;34.20;;;24.33;;
55009;SDS011;40903;51.638;7.528;2023-05-29T13:00:21;56.47;;;44.90;;
55009;SDS011;40903;51.638;7.528;2023-05-29T13:02:48;21.17;;;17.40;;
55009;SDS011;40903;51.638;7.528;2023-05-29T13:05:14;40.93;;;32.37;;
55009;SDS011;40903;51.638;7.528;2023-05-29T13:07:41;15.10;;;10.03;;
55009;SDS011;40903;51.638;7.528;2023-05-29T13:10:07;5.20;;;3.27;;
55009;SDS011;40903;51.638;7.528;2023-05-29T13:12:33;6.77;;;3.10;;
55009;SDS011;40903;51.638;7.528;2023-05-29T13:15:02;6.70;;;3.37;;
55009;SDS011;40903;51.638;7.528;2023-05-29T13:17:27;6.53;;;3.37;;
55009;SDS011;40903;51.638;7.528;2023-05-29T13:19:53;7.23;;;2.87;;
55009;SDS011;40903;51.638;7.528;2023-05-29T13:22:18;7.47;;;2.63;;
55009;SDS011;40903;51.638;7.528;2023-05-29T13:24:44;5.37;;;2.57;;
55009;SDS011;40903;51.638;7.528;2023-05-29T13:27:10;7.17;;;2.80;;
55009;SDS011;40903;51.638;7.528;2023-05-29T13:29:38;6.40;;;2.50;;
55009;SDS011;40903;51.638;7.528;2023-05-29T13:32:05;10.33;;;3.37;;
55009;SDS011;40903;51.638;7.528;2023-05-29T13:34:31;8.60;;;3.10;;
55009;SDS011;40903;51.638;7.528;2023-05-29T13:36:57;6.37;;;2.33;;
55009;SDS011;40903;51.638;7.528;2023-05-29T13:39:23;6.97;;;3.23;;
55009;SDS011;40903;51.638;7.528;2023-05-29T13:41:49;7.90;;;3.00;;
55009;SDS011;40903;51.638;7.528;2023-05-29T13:44:15;5.73;;;2.97;;
55009;SDS011;40903;51.638;7.528;2023-05-29T13:46:41;5.60;;;2.63;;
55009;SDS011;40903;51.638;7.528;2023-05-29T13:49:06;5.60;;;3.13;;
55009;SDS011;40903;51.638;7.528;2023-05-29T13:51:35;5.93;;;2.50;;
55009;SDS011;40903;51.638;7.528;2023-05-29T13:54:01;5.67;;;2.70;;
55009;SDS011;40903;51.638;7.528;2023-05-29T13:56:27;6.93;;;3.00;;
55009;SDS011;40903;51.638;7.528;2023-05-29T13:58:52;5.17;;;2.67;;
55009;SDS011;40903;51.638;7.528;2023-05-29T14:01:18;7.00;;;3.00;;
55009;SDS011;40903;51.638;7.528;2023-05-29T14:03:44;5.90;;;2.67;;
55009;SDS011;40903;51.638;7.528;2023-05-29T14:06:10;7.77;;;2.97;;
55009;SDS011;40903;51.638;7.528;2023-05-29T14:08:36;7.53;;;2.77;;
55009;SDS011;40903;51.638;7.528;2023-05-29T14:11:01;6.27;;;2.80;;
55009;SDS011;40903;51.638;7.528;2023-05-29T14:13:26;7.17;;;2.80;;
55009;SDS011;40903;51.638;7.528;2023-05-29T14:15:52;7.97;;;2.93;;
55009;SDS011;40903;51.638;7.528;2023-05-29T14:18:19;5.77;;;2.70;;
55009;SDS011;40903;51.638;7.528;2023-05-29T14:20:45;6.73;;;2.90;;
55009;SDS011;40903;51.638;7.528;2023-05-29T14:23:12;7.17;;;2.77;;
55009;SDS011;40903;51.638;7.528;2023-05-29T14:25:40;7.73;;;2.90;;
55009;SDS011;40903;51.638;7.528;2023-05-29T14:28:06;6.17;;;2.60;;
55009;SDS011;40903;51.638;7.528;2023-05-29T14:30:32;10.63;;;4.23;;
55009;SDS011;40903;51.638;7.528;2023-05-29T14:32:57;7.97;;;4.07;;
55009;SDS011;40903;51.638;7.528;2023-05-29T14:35:23;5.73;;;2.90;;
55009;SDS011;40903;51.638;7.528;2023-05-29T14:37:48;5.43;;;2.83;;
55009;SDS011;40903;51.638;7.528;2023-05-29T14:40:14;5.33;;;2.63;;
55009;SDS011;40903;51.638;7.528;2023-05-29T14:42:39;8.67;;;3.00;;
55009;SDS011;40903;51.638;7.528;2023-05-29T14:45:04;7.27;;;3.10;;
55009;SDS011;40903;51.638;7.528;2023-05-29T14:47:30;6.43;;;2.67;;
55009;SDS011;40903;51.638;7.528;2023-05-29T14:49:56;6.03;;;2.60;;
55009;SDS011;40903;51.638;7.528;2023-05-29T14:52:21;5.40;;;2.87;;
55009;SDS011;40903;51.638;7.528;2023-05-29T14:54:46;11.20;;;3.03;;
55009;SDS011;40903;51.638;7.528;2023-05-29T14:57:12;5.70;;;2.60;;
55009;SDS011;40903;51.638;7.528;2023-05-29T14:59:37;8.43;;;3.37;;
55009;SDS011;40903;51.638;7.528;2023-05-29T15:02:02;7.83;;;3.17;;
55009;SDS011;40903;51.638;7.528;2023-05-29T15:04:28;6.20;;;2.47;;
55009;SDS011;40903;51.638;7.528;2023-05-29T15:06:53;7.50;;;3.17;;
55009;SDS011;40903;51.638;7.528;2023-05-29T15:09:19;6.93;;;2.90;;
55009;SDS011;40903;51.638;7.528;2023-05-29T15:11:44;7.27;;;2.87;;
55009;SDS011;40903;51.638;7.528;2023-05-29T15:14:12;6.87;;;2.70;;
55009;SDS011;40903;51.638;7.528;2023-05-29T15:16:39;6.40;;;2.57;;
55009;SDS011;40903;51.638;7.528;2023-05-29T15:19:04;6.73;;;2.70;;
55009;SDS011;40903;51.638;7.528;2023-05-29T15:21:30;6.30;;;2.53;;
55009;SDS011;40903;51.638;7.528;2023-05-29T15:23:55;5.87;;;2.90;;
55009;SDS011;40903;51.638;7.528;2023-05-29T15:26:21;7.17;;;2.97;;
55009;SDS011;40903;51.638;7.528;2023-05-29T15:28:47;5.00;;;2.63;;
55009;SDS011;40903;51.638;7.528;2023-05-29T15:31:13;5.43;;;2.50;;
55009;SDS011;40903;51.638;7.528;2023-05-29T15:33:38;7.47;;;2.83;;
55009;SDS011;40903;51.638;7.528;2023-05-29T15:36:04;5.57;;;2.50;;
55009;SDS011;40903;51.638;7.528;2023-05-29T15:38:30;8.37;;;2.93;;
55009;SDS011;40903;51.638;7.528;2023-05-29T15:40:57;6.63;;;2.83;;
55009;SDS011;40903;51.638;7.528;2023-05-29T15:43:23;6.00;;;2.63;;
55009;SDS011;40903;51.638;7.528;2023-05-29T15:45:49;4.67;;;2.30;;
55009;SDS011;40903;51.638;7.528;2023-05-29T15:48:14;6.27;;;3.33;;
55009;SDS011;40903;51.638;7.528;2023-05-29T15:50:40;5.80;;;2.40;;
55009;SDS011;40903;51.638;7.528;2023-05-29T15:53:06;7.03;;;2.83;;
55009;SDS011;40903;51.638;7.528;2023-05-29T15:55:31;7.07;;;2.30;;
55009;SDS011;40903;51.638;7.528;2023-05-29T15:57:56;5.47;;;2.73;;
55009;SDS011;40903;51.638;7.528;2023-05-29T16:00:22;9.33;;;3.20;;
55009;SDS011;40903;51.638;7.528;2023-05-29T16:02:47;7.23;;;2.60;;
55009;SDS011;40903;51.638;7.528;2023-05-29T16:05:14;5.70;;;2.63;;
55009;SDS011;40903;51.638;7.528;2023-05-29T16:07:39;8.07;;;2.83;;
55009;SDS011;40903;51.638;7.528;2023-05-29T16:10:04;6.83;;;2.47;;
55009;SDS011;40903;51.638;7.528;2023-05-29T16:12:30;6.13;;;2.67;;
55009;SDS011;40903;51.638;7.528;2023-05-29T16:14:57;13.03;;;2.87;;
55009;SDS011;40903;51.638;7.528;2023-05-29T16:17:23;12.93;;;3.67;;
55009;SDS011;40903;51.638;7.528;2023-05-29T16:19:50;8.50;;;3.17;;
55009;SDS011;40903;51.638;7.528;2023-05-29T16:22:19;8.00;;;2.93;;
55009;SDS011;40903;51.638;7.528;2023-05-29T16:24:45;6.50;;;3.67;;
55009;SDS011;40903;51.638;7.528;2023-05-29T16:27:10;7.13;;;3.97;;
55009;SDS011;40903;51.638;7.528;2023-05-29T16:29:36;6.90;;;3.07;;
55009;SDS011;40903;51.638;7.528;2023-05-29T16:32:01;9.53;;;2.97;;
55009;SDS011;40903;51.638;7.528;2023-05-29T16:34:27;8.47;;;2.80;;
55009;SDS011;40903;51.638;7.528;2023-05-29T16:36:52;8.07;;;2.80;;
55009;SDS011;40903;51.638;7.528;2023-05-29T16:39:18;7.50;;;3.07;;
55009;SDS011;40903;51.638;7.528;2023-05-29T16:41:47;9.23;;;2.87;;
55009;SDS011;40903;51.638;7.528;2023-05-29T16:44:15;9.67;;;3.20;;
55009;SDS011;40903;51.638;7.528;2023-05-29T16:46:40;12.53;;;3.23;;
55009;SDS011;40903;51.638;7.528;2023-05-29T16:49:06;13.10;;;3.77;;
55009;SDS011;40903;51.638;7.528;2023-05-29T16:51:31;6.33;;;2.90;;
